createdAt,value
2019-05-11T00:01:58.480Z,4.17
2019-05-11T00:04:27.510Z,5.37
2019-05-11T00:06:56.449Z,5.90
2019-05-11T00:09:25.477Z,5.70
2019-05-11T00:11:54.444Z,6.00
2019-05-11T00:14:23.477Z,4.63
2019-05-11T00:16:52.458Z,5.33
2019-05-11T00:19:21.519Z,5.60
2019-05-11T00:21:50.517Z,6.27
2019-05-11T00:24:19.492Z,5.80
2019-05-11T00:26:48.503Z,6.80
2019-05-11T00:29:17.513Z,6.77
2019-05-11T00:31:46.599Z,7.27
2019-05-11T00:34:15.672Z,7.07
2019-05-11T00:36:44.866Z,8.00
2019-05-11T00:39:13.861Z,7.63
2019-05-11T00:41:43.047Z,7.50
2019-05-11T00:44:12.078Z,6.87
2019-05-11T00:46:41.116Z,6.50
2019-05-11T00:49:10.518Z,7.20
2019-05-11T00:51:39.504Z,6.57
2019-05-11T00:54:08.529Z,6.17
2019-05-11T00:56:37.471Z,5.97
2019-05-11T00:59:19.848Z,6.50
2019-05-11T01:01:37.084Z,7.17
2019-05-11T01:04:06.076Z,6.20
2019-05-11T01:06:35.063Z,7.47
2019-05-11T01:09:05.525Z,7.60
2019-05-11T01:11:34.579Z,8.70
2019-05-11T01:14:03.623Z,7.40
2019-05-11T01:16:32.583Z,7.23
2019-05-11T01:19:01.454Z,6.43
2019-05-11T01:21:30.297Z,6.70
2019-05-11T01:23:59.163Z,6.70
2019-05-11T01:26:28.176Z,6.67
2019-05-11T01:28:57.151Z,7.27
2019-05-11T01:31:26.194Z,6.73
2019-05-11T01:33:55.011Z,6.63
2019-05-11T01:36:23.978Z,6.27
2019-05-11T01:38:52.929Z,6.37
2019-05-11T01:41:21.831Z,6.27
2019-05-11T01:43:51.309Z,5.90
2019-05-11T01:46:20.113Z,6.10
2019-05-11T01:48:49.046Z,6.00
2019-05-11T01:51:17.909Z,6.47
2019-05-11T01:53:48.095Z,6.63
2019-05-11T01:56:17.257Z,6.40
2019-05-11T01:58:46.245Z,7.43
2019-05-11T02:01:15.178Z,7.10
2019-05-11T02:03:44.059Z,7.27
2019-05-11T02:06:12.943Z,7.53
2019-05-11T02:08:41.888Z,7.30
2019-05-11T02:11:15.858Z,7.80
2019-05-11T02:13:43.454Z,7.20
2019-05-11T02:16:12.495Z,7.60
2019-05-11T02:18:41.397Z,6.90
2019-05-11T02:21:10.366Z,7.67
2019-05-11T02:23:39.202Z,8.03
2019-05-11T02:26:08.234Z,7.70
2019-05-11T02:28:37.206Z,7.20
2019-05-11T02:31:06.293Z,7.23
2019-05-11T02:33:35.151Z,7.53
2019-05-11T02:36:04.088Z,8.00
2019-05-11T02:38:32.999Z,7.13
2019-05-11T02:41:01.967Z,7.73
2019-05-11T02:43:30.902Z,7.63
2019-05-11T02:45:59.850Z,7.20
2019-05-11T02:48:28.951Z,7.17
2019-05-11T02:50:59.722Z,7.00
2019-05-11T02:53:30.480Z,7.97
2019-05-11T02:56:01.208Z,7.03
2019-05-11T02:58:30.257Z,7.83
2019-05-11T03:00:59.519Z,7.43
2019-05-11T03:03:28.323Z,6.40
2019-05-11T03:05:57.291Z,7.50
2019-05-11T03:08:26.226Z,6.67
2019-05-11T03:10:55.155Z,7.50
2019-05-11T03:13:24.096Z,7.50
2019-05-11T03:15:53.164Z,6.97
2019-05-11T03:18:22.200Z,7.37
2019-05-11T03:20:51.444Z,7.60
2019-05-11T03:23:20.229Z,7.67
2019-05-11T03:25:49.213Z,7.43
2019-05-11T03:28:18.134Z,8.40
2019-05-11T03:30:47.090Z,8.00
2019-05-11T03:33:16.186Z,8.23
2019-05-11T03:35:45.148Z,8.27
2019-05-11T03:38:13.949Z,8.23
2019-05-11T03:40:42.940Z,8.50
2019-05-11T03:43:11.844Z,8.53
2019-05-11T03:45:40.891Z,8.63
2019-05-11T03:48:09.737Z,8.60
2019-05-11T03:50:38.732Z,8.70
2019-05-11T03:53:26.894Z,9.13
2019-05-11T03:55:55.826Z,8.73
2019-05-11T03:58:26.563Z,8.60
2019-05-11T04:00:55.578Z,9.23
2019-05-11T04:03:24.454Z,9.13
2019-05-11T04:05:53.520Z,8.50
2019-05-11T04:08:22.754Z,8.53
2019-05-11T04:10:51.759Z,9.10
2019-05-11T04:13:20.643Z,9.23
2019-05-11T04:15:49.675Z,11.03
2019-05-11T04:18:18.502Z,8.27
2019-05-11T04:20:47.685Z,9.00
2019-05-11T04:23:16.724Z,9.40
2019-05-11T04:25:45.645Z,8.87
2019-05-11T04:28:14.621Z,8.67
2019-05-11T04:30:43.688Z,8.83
2019-05-11T04:33:12.591Z,9.40
2019-05-11T04:35:41.433Z,8.80
2019-05-11T04:38:10.272Z,9.73
2019-05-11T04:40:39.235Z,9.20
2019-05-11T04:43:08.098Z,9.33
2019-05-11T04:45:36.925Z,9.17
2019-05-11T04:48:05.965Z,8.73
2019-05-11T04:50:35.053Z,9.03
2019-05-11T04:53:04.106Z,9.13
2019-05-11T04:55:33.064Z,8.03
2019-05-11T04:58:01.966Z,9.27
2019-05-11T05:00:31.014Z,8.93
2019-05-11T05:02:59.890Z,9.10
2019-05-11T05:05:28.801Z,8.87
2019-05-11T05:08:09.317Z,8.23
2019-05-11T05:10:28.275Z,8.30
2019-05-11T05:13:09.772Z,8.17
2019-05-11T05:15:27.887Z,7.07
2019-05-11T05:17:56.815Z,7.53
2019-05-11T05:20:26.054Z,7.73
2019-05-11T05:22:55.141Z,7.87
2019-05-11T05:25:24.038Z,7.80
2019-05-11T05:27:53.070Z,7.57
2019-05-11T05:30:21.998Z,6.63
2019-05-11T05:32:50.858Z,6.77
2019-05-11T05:35:20.045Z,7.70
2019-05-11T05:37:48.952Z,7.23
2019-05-11T05:40:18.181Z,7.37
2019-05-11T05:42:47.157Z,7.90
2019-05-11T05:45:16.315Z,7.47
2019-05-11T05:47:45.149Z,6.90
2019-05-11T05:50:14.426Z,7.27
2019-05-11T05:52:43.222Z,6.73
2019-05-11T05:55:12.148Z,6.67
2019-05-11T05:57:41.287Z,7.03
2019-05-11T06:00:10.566Z,6.90
2019-05-11T06:02:39.690Z,6.60
2019-05-11T06:05:08.750Z,6.80
2019-05-11T06:07:37.785Z,6.97
2019-05-11T06:10:06.990Z,6.33
2019-05-11T06:12:35.952Z,5.90
2019-05-11T06:15:05.634Z,6.53
2019-05-11T06:17:34.709Z,6.30
2019-05-11T06:20:04.425Z,5.63
2019-05-11T06:22:33.681Z,5.50
2019-05-11T06:25:02.655Z,6.00
2019-05-11T06:27:31.610Z,5.83
2019-05-11T06:30:00.394Z,6.10
2019-05-11T06:32:29.335Z,5.60
2019-05-11T06:34:58.432Z,6.50
2019-05-11T06:37:27.342Z,5.50
2019-05-11T06:39:56.162Z,5.83
2019-05-11T06:42:25.112Z,4.83
2019-05-11T06:44:54.092Z,5.57
2019-05-11T06:47:23.110Z,5.03
2019-05-11T06:49:52.072Z,5.97
2019-05-11T06:52:20.926Z,5.63
2019-05-11T06:54:49.845Z,5.57
2019-05-11T06:57:18.630Z,6.20
2019-05-11T06:59:47.586Z,5.50
2019-05-11T07:02:16.515Z,4.80
2019-05-11T07:04:45.457Z,4.83
2019-05-11T07:07:14.306Z,4.70
2019-05-11T07:09:43.182Z,4.93
2019-05-11T07:12:12.290Z,5.20
2019-05-11T07:14:41.439Z,5.10
2019-05-11T07:17:10.374Z,4.70
2019-05-11T07:19:39.222Z,4.43
2019-05-11T07:22:08.141Z,4.30
2019-05-11T07:24:37.027Z,4.57
2019-05-11T07:27:06.186Z,4.20
2019-05-11T07:29:35.082Z,4.57
2019-05-11T07:32:10.530Z,4.20
2019-05-11T07:34:34.722Z,4.33
2019-05-11T07:37:03.629Z,4.53
2019-05-11T07:39:32.450Z,4.43
2019-05-11T07:42:01.670Z,3.70
2019-05-11T07:44:37.876Z,3.87
2019-05-11T07:47:01.522Z,3.87
2019-05-11T07:49:30.369Z,3.77
2019-05-11T07:51:59.158Z,3.70
2019-05-11T07:54:28.289Z,4.20
2019-05-11T07:56:58.370Z,4.33
2019-05-11T07:59:28.898Z,3.73
2019-05-11T08:01:58.430Z,4.00
2019-05-11T08:04:28.787Z,3.60
2019-05-11T08:06:58.556Z,3.67
2019-05-11T08:09:27.923Z,3.97
2019-05-11T08:11:58.455Z,4.30
2019-05-11T08:14:28.798Z,4.50
2019-05-11T08:16:59.427Z,3.90
2019-05-11T08:19:28.846Z,3.27
2019-05-11T08:21:58.375Z,2.67
2019-05-11T08:24:28.478Z,2.73
2019-05-11T08:26:58.230Z,4.47
2019-05-11T08:29:27.976Z,3.40
2019-05-11T08:31:58.070Z,3.07
2019-05-11T08:34:28.558Z,2.57
2019-05-11T08:36:58.416Z,2.50
2019-05-11T08:39:28.861Z,3.83
2019-05-11T08:41:59.005Z,2.40
2019-05-11T08:44:28.875Z,2.20
2019-05-11T08:46:58.351Z,2.47
2019-05-11T08:49:28.684Z,2.23
2019-05-11T08:51:58.084Z,2.23
2019-05-11T08:54:28.844Z,2.27
2019-05-11T08:56:58.789Z,2.47
2019-05-11T08:59:28.116Z,2.30
2019-05-11T09:01:58.726Z,3.67
2019-05-11T09:04:28.893Z,2.40
2019-05-11T09:06:58.816Z,2.80
2019-05-11T09:09:28.823Z,3.33
2019-05-11T09:11:58.910Z,3.43
2019-05-11T09:14:28.523Z,3.73
2019-05-11T09:16:57.880Z,3.57
2019-05-11T09:19:28.500Z,3.37
2019-05-11T09:21:58.875Z,3.60
2019-05-11T09:24:28.343Z,5.77
2019-05-11T09:26:58.558Z,4.43
2019-05-11T09:29:28.142Z,4.40
2019-05-11T09:31:58.174Z,4.40
2019-05-11T09:34:28.889Z,6.80
2019-05-11T09:36:58.602Z,5.70
2019-05-11T09:39:28.148Z,6.23
2019-05-11T09:41:58.414Z,5.23
2019-05-11T09:44:28.850Z,4.70
2019-05-11T09:47:01.951Z,5.33
2019-05-11T09:49:43.357Z,6.77
2019-05-11T09:51:59.421Z,6.00
2019-05-11T09:54:28.918Z,5.00
2019-05-11T09:56:58.065Z,5.40
2019-05-11T09:59:28.265Z,5.80
2019-05-11T10:01:58.965Z,8.13
2019-05-11T10:04:28.861Z,5.57
2019-05-11T10:06:58.624Z,5.13
2019-05-11T10:09:28.172Z,5.57
2019-05-11T10:11:58.507Z,5.97
2019-05-11T10:14:28.832Z,6.00
2019-05-11T10:16:58.658Z,6.43
2019-05-11T10:19:28.404Z,6.73
2019-05-11T10:21:58.242Z,7.70
2019-05-11T10:24:28.307Z,7.87
2019-05-11T10:26:57.884Z,7.80
2019-05-11T10:29:28.941Z,8.70
2019-05-11T10:31:58.671Z,9.00
2019-05-11T10:34:28.694Z,9.87
2019-05-11T10:36:58.088Z,13.40
2019-05-11T10:39:27.886Z,11.90
2019-05-11T10:41:58.326Z,11.30
2019-05-11T10:44:28.233Z,11.50
2019-05-11T10:46:58.932Z,12.27
2019-05-11T10:49:28.812Z,12.03
2019-05-11T10:51:58.789Z,13.07
2019-05-11T10:54:28.789Z,12.37
2019-05-11T10:56:58.161Z,13.43
2019-05-11T10:59:28.297Z,12.60
2019-05-11T11:01:58.969Z,13.93
2019-05-11T11:04:28.811Z,14.37
2019-05-11T11:06:59.197Z,13.87
2019-05-11T11:09:28.421Z,18.03
2019-05-11T11:11:58.093Z,20.07
2019-05-11T11:14:28.616Z,21.40
2019-05-11T11:16:58.376Z,24.90
2019-05-11T11:19:29.046Z,26.60
2019-05-11T11:22:22.272Z,27.70
2019-05-11T11:24:28.868Z,26.47
2019-05-11T11:26:58.331Z,26.17
2019-05-11T11:29:28.817Z,29.03
2019-05-11T11:31:58.843Z,29.20
2019-05-11T11:34:28.167Z,29.67
2019-05-11T11:36:58.144Z,29.73
2019-05-11T11:39:28.356Z,29.60
2019-05-11T11:41:58.557Z,32.50
2019-05-11T11:44:28.650Z,32.03
2019-05-11T11:46:59.019Z,32.77
2019-05-11T11:49:28.597Z,33.07
2019-05-11T11:51:57.994Z,32.03
2019-05-11T11:54:28.771Z,31.77
2019-05-11T11:56:58.945Z,30.30
2019-05-11T11:59:28.844Z,29.23
2019-05-11T12:01:58.271Z,29.37
2019-05-11T12:04:28.250Z,28.53
2019-05-11T12:06:58.218Z,25.67
2019-05-11T12:09:28.604Z,23.40
2019-05-11T12:11:58.337Z,22.27
2019-05-11T12:14:28.171Z,21.70
2019-05-11T12:17:07.004Z,19.33
2019-05-11T12:19:28.095Z,20.40
2019-05-11T12:21:58.075Z,17.53
2019-05-11T12:24:28.791Z,14.67
2019-05-11T12:26:58.721Z,13.33
2019-05-11T12:29:28.253Z,13.00
2019-05-11T12:31:59.005Z,11.63
2019-05-11T12:34:28.438Z,10.70
2019-05-11T12:36:58.063Z,10.13
2019-05-11T12:39:28.225Z,10.38
2019-05-11T12:41:58.264Z,9.28
2019-05-11T12:44:28.355Z,10.08
2019-05-11T12:46:58.459Z,8.63
2019-05-11T12:49:28.965Z,9.43
2019-05-11T12:51:58.357Z,10.93
2019-05-11T12:54:27.998Z,10.60
2019-05-11T12:56:57.940Z,11.57
2019-05-11T12:59:27.808Z,11.00
2019-05-11T13:01:59.107Z,9.90
2019-05-11T13:04:28.247Z,9.90
2019-05-11T13:06:58.135Z,9.28
2019-05-11T13:09:28.902Z,9.17
2019-05-11T13:11:58.775Z,8.80
2019-05-11T13:14:27.942Z,9.27
2019-05-11T13:16:58.863Z,9.63
2019-05-11T13:19:28.238Z,9.00
2019-05-11T13:21:58.958Z,7.63
2019-05-11T13:24:28.335Z,8.67
2019-05-11T13:26:59.621Z,7.23
2019-05-11T13:29:28.785Z,5.87
2019-05-11T13:31:59.107Z,6.20
2019-05-11T13:34:31.395Z,5.77
2019-05-11T13:36:59.033Z,6.60
2019-05-11T13:39:28.528Z,5.87
2019-05-11T13:41:58.040Z,5.77
2019-05-11T13:44:27.967Z,7.03
2019-05-11T13:46:58.640Z,6.60
2019-05-11T13:49:28.388Z,7.27
2019-05-11T13:51:58.536Z,7.87
2019-05-11T13:54:29.653Z,8.10
2019-05-11T13:56:58.467Z,8.17
2019-05-11T13:59:28.008Z,7.90
2019-05-11T14:01:58.220Z,9.67
2019-05-11T14:04:28.083Z,9.93
2019-05-11T14:06:58.652Z,10.73
2019-05-11T14:09:28.939Z,12.40
2019-05-11T14:11:58.359Z,14.70
2019-05-11T14:14:28.897Z,13.93
2019-05-11T14:16:58.814Z,13.37
2019-05-11T14:19:28.993Z,15.53
2019-05-11T14:21:58.584Z,15.73
2019-05-11T14:24:28.847Z,14.97
2019-05-11T14:26:58.218Z,15.37
2019-05-11T14:29:48.702Z,14.23
2019-05-11T14:32:17.848Z,13.93
2019-05-11T14:34:48.482Z,15.00
2019-05-11T14:37:18.104Z,14.73
2019-05-11T14:39:48.223Z,13.70
2019-05-11T14:42:21.912Z,13.17
2019-05-11T14:44:48.357Z,12.23
2019-05-11T14:47:17.882Z,11.33
2019-05-11T14:49:48.351Z,11.77
2019-05-11T14:52:18.797Z,10.50
2019-05-11T14:54:48.550Z,10.27
2019-05-11T14:57:18.604Z,8.53
2019-05-11T14:59:48.282Z,9.27
2019-05-11T15:02:37.709Z,8.77
2019-05-11T15:05:08.640Z,7.17
2019-05-11T15:07:38.540Z,6.67
2019-05-11T15:10:08.547Z,6.63
2019-05-11T15:12:38.018Z,6.73
2019-05-11T15:15:08.012Z,6.17
2019-05-11T15:17:39.505Z,7.37
2019-05-11T15:20:08.968Z,6.53
2019-05-11T15:22:38.353Z,5.90
2019-05-11T15:25:12.519Z,5.60
2019-05-11T15:27:41.754Z,5.83
2019-05-11T15:30:12.970Z,5.87
2019-05-11T15:32:42.295Z,5.43
2019-05-11T15:35:11.618Z,5.43
2019-05-11T15:37:40.577Z,4.87
2019-05-11T15:40:14.733Z,5.00
2019-05-11T15:42:43.834Z,5.13
2019-05-11T15:45:13.823Z,4.90
2019-05-11T15:47:42.906Z,5.27
2019-05-11T15:50:12.845Z,5.03
2019-05-11T15:52:42.034Z,4.43
2019-05-11T15:55:12.104Z,4.30
2019-05-11T15:57:41.026Z,4.47
2019-05-11T16:00:10.563Z,4.43
2019-05-11T16:02:41.203Z,3.90
2019-05-11T16:05:10.655Z,4.50
2019-05-11T16:07:39.463Z,4.70
2019-05-11T16:10:09.217Z,4.33
2019-05-11T16:12:39.159Z,4.20
2019-05-11T16:15:08.946Z,4.17
2019-05-11T16:17:40.393Z,4.17
2019-05-11T16:20:10.112Z,4.03
2019-05-11T16:22:39.160Z,3.97
2019-05-11T16:25:08.917Z,4.50
2019-05-11T16:27:38.192Z,4.57
2019-05-11T16:30:07.993Z,4.10
2019-05-11T16:32:58.047Z,3.93
2019-05-11T16:35:28.081Z,4.17
2019-05-11T16:37:59.177Z,3.67
2019-05-11T16:40:29.581Z,3.87
2019-05-11T16:42:58.935Z,3.90
2019-05-11T16:45:28.287Z,4.03
2019-05-11T16:47:58.841Z,3.73
2019-05-11T16:50:28.383Z,4.10
2019-05-11T16:52:58.545Z,3.43
2019-05-11T16:55:27.715Z,3.87
2019-05-11T16:57:58.592Z,3.77
2019-05-11T17:00:27.227Z,4.87
2019-05-11T17:02:57.700Z,4.63
2019-05-11T17:05:30.302Z,4.90
2019-05-11T17:07:58.773Z,3.67
2019-05-11T17:10:28.433Z,4.30
2019-05-11T17:12:58.115Z,3.83
2019-05-11T17:15:28.850Z,3.60
2019-05-11T17:17:58.766Z,4.50
2019-05-11T17:20:27.842Z,3.80
2019-05-11T17:22:56.668Z,3.80
2019-05-11T17:25:25.645Z,3.60
2019-05-11T17:27:54.515Z,4.30
2019-05-11T17:30:23.589Z,4.20
2019-05-11T17:32:52.521Z,4.60
2019-05-11T17:35:21.317Z,3.73
2019-05-11T17:37:50.275Z,4.67
2019-05-11T17:40:23.185Z,4.60
2019-05-11T17:42:53.354Z,4.50
2019-05-11T17:45:20.645Z,4.17
2019-05-11T17:47:49.734Z,4.57
2019-05-11T17:50:19.354Z,4.17
2019-05-11T17:52:48.413Z,4.30
2019-05-11T17:55:18.466Z,4.30
2019-05-11T17:57:49.571Z,4.87
2019-05-11T18:00:20.385Z,5.60
2019-05-11T18:02:49.379Z,5.80
2019-05-11T18:05:18.426Z,6.60
2019-05-11T18:07:47.357Z,4.67
2019-05-11T18:10:18.235Z,5.13
2019-05-11T18:12:48.631Z,5.23
2019-05-11T18:15:18.653Z,5.07
2019-05-11T18:17:48.665Z,5.47
2019-05-11T18:20:21.370Z,5.00
2019-05-11T18:22:49.122Z,4.40
2019-05-11T18:25:18.552Z,4.17
2019-05-11T18:27:48.265Z,4.50
2019-05-11T18:30:17.486Z,4.63
2019-05-11T18:32:48.809Z,6.30
2019-05-11T18:35:19.485Z,6.60
2019-05-11T18:37:47.875Z,5.83
2019-05-11T18:40:18.683Z,4.50
2019-05-11T18:42:48.710Z,4.67
2019-05-11T18:45:19.098Z,5.13
2019-05-11T18:47:49.049Z,5.63
2019-05-11T18:50:29.751Z,5.27
2019-05-11T18:52:49.450Z,4.30
2019-05-11T18:55:18.947Z,4.10
2019-05-11T18:57:49.003Z,4.07
2019-05-11T19:00:19.472Z,5.47
2019-05-11T19:02:49.415Z,5.90
2019-05-11T19:05:19.250Z,5.40
2019-05-11T19:07:48.484Z,5.17
2019-05-11T19:10:17.559Z,4.80
2019-05-11T19:12:48.718Z,5.60
2019-05-11T19:15:18.711Z,6.03
2019-05-11T19:17:49.088Z,4.53
2019-05-11T19:20:18.938Z,4.57
2019-05-11T19:22:47.870Z,5.03
2019-05-11T19:25:18.186Z,4.53
2019-05-11T19:27:50.170Z,4.80
2019-05-11T19:30:18.571Z,4.13
2019-05-11T19:32:48.687Z,5.10
2019-05-11T19:35:20.910Z,4.93
2019-05-11T19:37:48.789Z,6.33
2019-05-11T19:40:17.857Z,5.13
2019-05-11T19:42:58.751Z,4.73
2019-05-11T19:45:29.088Z,5.00
2019-05-11T19:47:57.818Z,4.67
2019-05-11T19:50:26.875Z,4.33
2019-05-11T19:52:57.818Z,4.27
2019-05-11T19:55:28.330Z,4.70
2019-05-11T19:57:57.085Z,4.13
2019-05-11T20:00:26.038Z,4.30
2019-05-11T20:02:55.365Z,4.77
2019-05-11T20:05:24.219Z,5.77
2019-05-11T20:07:53.158Z,6.27
2019-05-11T20:10:21.984Z,5.80
2019-05-11T20:12:50.925Z,6.00
2019-05-11T20:15:19.876Z,6.73
2019-05-11T20:17:49.155Z,4.93
2019-05-11T20:20:18.806Z,4.13
2019-05-11T20:22:48.560Z,3.97
2019-05-11T20:25:18.951Z,3.83
2019-05-11T20:27:48.929Z,3.17
2019-05-11T20:30:18.977Z,3.53
2019-05-11T20:32:49.070Z,3.40
2019-05-11T20:35:18.243Z,3.63
2019-05-11T20:37:47.505Z,3.30
2019-05-11T20:40:18.367Z,3.50
2019-05-11T20:42:48.548Z,3.33
2019-05-11T20:45:18.451Z,3.17
2019-05-11T20:47:48.724Z,3.30
2019-05-11T20:50:18.508Z,3.30
2019-05-11T20:52:48.225Z,3.17
2019-05-11T20:55:18.222Z,2.93
2019-05-11T20:57:48.504Z,3.00
2019-05-11T21:00:18.670Z,2.63
2019-05-11T21:02:48.648Z,3.17
2019-05-11T21:05:18.551Z,3.93
2019-05-11T21:07:47.641Z,2.87
2019-05-11T21:10:16.713Z,4.07
2019-05-11T21:12:45.629Z,2.97
2019-05-11T21:15:14.739Z,4.17
2019-05-11T21:17:43.662Z,4.40
2019-05-11T21:20:12.628Z,6.13
2019-05-11T21:22:41.472Z,4.60
2019-05-11T21:25:11.079Z,3.13
2019-05-11T21:27:40.326Z,3.20
2019-05-11T21:30:10.246Z,2.60
2019-05-11T21:32:39.485Z,2.37
2019-05-11T21:35:09.313Z,2.77
2019-05-11T21:37:39.015Z,2.90
2019-05-11T21:40:09.224Z,2.93
2019-05-11T21:42:39.059Z,2.80
2019-05-11T21:45:09.485Z,3.00
2019-05-11T21:47:39.496Z,2.50
2019-05-11T21:50:08.912Z,2.30
2019-05-11T21:52:38.606Z,3.10
2019-05-11T21:55:09.709Z,2.70
2019-05-11T21:57:39.153Z,2.40
2019-05-11T22:00:09.254Z,2.33
2019-05-11T22:02:38.877Z,2.87
2019-05-11T22:05:09.564Z,2.70
2019-05-11T22:07:41.800Z,2.73
2019-05-11T22:10:09.996Z,2.47
2019-05-11T22:12:39.418Z,2.83
2019-05-11T22:15:09.472Z,3.57
2019-05-11T22:17:39.599Z,2.90
2019-05-11T22:20:09.277Z,2.50
2019-05-11T22:22:38.930Z,3.17
2019-05-11T22:25:08.672Z,2.60
2019-05-11T22:27:38.921Z,3.60
2019-05-11T22:30:08.837Z,2.97
2019-05-11T22:32:38.630Z,2.70
2019-05-11T22:35:07.647Z,2.37
2019-05-11T22:37:38.860Z,2.53
2019-05-11T22:40:08.263Z,2.77
2019-05-11T22:42:37.830Z,2.30
2019-05-11T22:45:08.483Z,2.70
2019-05-11T22:47:39.393Z,2.80
2019-05-11T22:50:08.608Z,3.63
2019-05-11T22:52:40.268Z,3.00
2019-05-11T22:55:12.092Z,2.47
2019-05-11T22:57:40.001Z,2.37
2019-05-11T23:00:10.038Z,3.13
2019-05-11T23:02:39.052Z,2.20
2019-05-11T23:05:09.022Z,2.13
2019-05-11T23:07:41.089Z,2.30
2019-05-11T23:10:08.930Z,2.80
2019-05-11T23:12:38.582Z,2.00
2019-05-11T23:15:12.428Z,2.93
2019-05-11T23:17:41.774Z,2.50
2019-05-11T23:20:11.385Z,2.63
2019-05-11T23:22:57.516Z,3.00
2019-05-11T23:25:20.535Z,2.40
2019-05-11T23:27:49.431Z,2.40
2019-05-11T23:30:20.099Z,3.03
2019-05-11T23:32:49.549Z,2.73
2019-05-11T23:35:19.171Z,3.60
2019-05-11T23:37:49.602Z,2.77
2019-05-11T23:40:21.287Z,2.10
2019-05-11T23:42:50.478Z,2.23
2019-05-11T23:45:19.547Z,2.67
2019-05-11T23:47:49.111Z,2.70
2019-05-11T23:50:19.268Z,2.90
2019-05-11T23:52:53.402Z,2.70
2019-05-11T23:55:19.608Z,2.70
2019-05-11T23:57:49.105Z,2.83
